sensor_id;sensor_type;location;lat;lon;timestamp;pressure;altitude;pressure_sealevel;temperature;humidity
83140;BME280;73027;54.208;19.128;2024-03-02T00:02:11;101275.97;;;10.32;66.60
83140;BME280;73027;54.208;19.128;2024-03-02T00:04:37;101276.78;;;10.34;66.44
83140;BME280;73027;54.208;19.128;2024-03-02T00:07:03;101271.69;;;10.32;66.50
83140;BME280;73027;54.208;19.128;2024-03-02T00:09:29;101275.94;;;10.33;66.48
83140;BME280;73027;54.208;19.128;2024-03-02T00:11:54;101276.81;;;10.32;66.69
83140;BME280;73027;54.208;19.128;2024-03-02T00:14:20;101277.66;;;10.34;66.57
83140;BME280;73027;54.208;19.128;2024-03-02T00:16:46;101272.53;;;10.33;67.06
83140;BME280;73027;54.208;19.128;2024-03-02T00:19:11;101253.91;;;10.22;67.19
83140;BME280;73027;54.208;19.128;2024-03-02T00:21:37;101280.22;;;10.34;67.10
83140;BME280;73027;54.208;19.128;2024-03-02T00:24:17;101262.34;;;10.28;66.50
83140;BME280;73027;54.208;19.128;2024-03-02T00:26:45;101267.41;;;10.31;66.91
83140;BME280;73027;54.208;19.128;2024-03-02T00:29:16;101269.00;;;10.35;67.34
83140;BME280;73027;54.208;19.128;2024-03-02T00:31:43;101251.31;;;10.23;67.27
83140;BME280;73027;54.208;19.128;2024-03-02T00:34:08;101272.50;;;10.34;67.05
83140;BME280;73027;54.208;19.128;2024-03-02T00:36:36;101261.34;;;10.34;66.72
83140;BME280;73027;54.208;19.128;2024-03-02T00:39:02;101253.56;;;10.35;66.99
83140;BME280;73027;54.208;19.128;2024-03-02T00:41:29;101259.63;;;10.34;67.34
83140;BME280;73027;54.208;19.128;2024-03-02T00:46:36;101253.53;;;10.37;67.00
83140;BME280;73027;54.208;19.128;2024-03-02T00:49:11;101255.25;;;10.38;67.21
83140;BME280;73027;54.208;19.128;2024-03-02T00:51:39;101253.56;;;10.35;67.04
83140;BME280;73027;54.208;19.128;2024-03-02T00:54:07;101259.56;;;10.36;66.95
83140;BME280;73027;54.208;19.128;2024-03-02T00:56:34;101247.63;;;10.33;67.01
83140;BME280;73027;54.208;19.128;2024-03-02T00:59:00;101254.47;;;10.34;66.76
83140;BME280;73027;54.208;19.128;2024-03-02T01:01:26;101250.22;;;10.32;66.97
83140;BME280;73027;54.208;19.128;2024-03-02T01:03:52;101257.16;;;10.30;67.09
83140;BME280;73027;54.208;19.128;2024-03-02T01:06:18;101270.81;;;10.33;67.20
83140;BME280;73027;54.208;19.128;2024-03-02T01:08:43;101267.38;;;10.33;67.36
83140;BME280;73027;54.208;19.128;2024-03-02T01:11:09;101243.44;;;10.29;66.97
83140;BME280;73027;54.208;19.128;2024-03-02T01:13:34;101257.06;;;10.33;67.19
83140;BME280;73027;54.208;19.128;2024-03-02T01:16:01;101245.94;;;10.32;67.56
83140;BME280;73027;54.208;19.128;2024-03-02T01:18:26;101250.22;;;10.32;67.33
83140;BME280;73027;54.208;19.128;2024-03-02T01:20:52;101250.19;;;10.33;67.15
83140;BME280;73027;54.208;19.128;2024-03-02T01:23:24;101252.75;;;10.35;66.83
83140;BME280;73027;54.208;19.128;2024-03-02T01:25:50;101245.06;;;10.33;67.03
83140;BME280;73027;54.208;19.128;2024-03-02T01:28:16;101239.06;;;10.31;67.00
83140;BME280;73027;54.208;19.128;2024-03-02T01:30:41;101239.06;;;10.31;67.19
83140;BME280;73027;54.208;19.128;2024-03-02T01:33:07;101234.00;;;10.28;67.24
83140;BME280;73027;54.208;19.128;2024-03-02T01:35:33;101230.66;;;10.26;67.45
83140;BME280;73027;54.208;19.128;2024-03-02T01:37:58;101228.91;;;10.27;67.44
83140;BME280;73027;54.208;19.128;2024-03-02T01:40:24;101225.41;;;10.29;67.02
83140;BME280;73027;54.208;19.128;2024-03-02T01:42:52;101231.44;;;10.28;67.53
83140;BME280;73027;54.208;19.128;2024-03-02T01:45:18;101224.59;;;10.27;66.92
83140;BME280;73027;54.208;19.128;2024-03-02T01:47:43;101231.50;;;10.27;67.21
83140;BME280;73027;54.208;19.128;2024-03-02T01:50:11;101230.56;;;10.29;67.11
83140;BME280;73027;54.208;19.128;2024-03-02T01:52:36;101222.91;;;10.26;67.39
83140;BME280;73027;54.208;19.128;2024-03-02T01:55:02;101225.44;;;10.28;67.06
83140;BME280;73027;54.208;19.128;2024-03-02T01:57:29;101225.44;;;10.28;67.02
83140;BME280;73027;54.208;19.128;2024-03-02T01:59:54;101229.72;;;10.27;66.94
83140;BME280;73027;54.208;19.128;2024-03-02T02:02:20;101219.56;;;10.23;67.08
83140;BME280;73027;54.208;19.128;2024-03-02T02:04:45;101212.66;;;10.25;67.45
83140;BME280;73027;54.208;19.128;2024-03-02T02:07:10;101213.59;;;10.22;67.18
83140;BME280;73027;54.208;19.128;2024-03-02T02:09:36;101215.13;;;10.28;67.59
83140;BME280;73027;54.208;19.128;2024-03-02T02:12:02;101217.72;;;10.28;67.10
83140;BME280;73027;54.208;19.128;2024-03-02T02:14:29;101220.28;;;10.28;66.90
83140;BME280;73027;54.208;19.128;2024-03-02T02:16:55;101216.03;;;10.27;66.91
83140;BME280;73027;54.208;19.128;2024-03-02T02:19:20;101168.78;;;9.94;67.04
83140;BME280;73027;54.208;19.128;2024-03-02T02:21:45;101226.53;;;10.19;67.14
83140;BME280;73027;54.208;19.128;2024-03-02T02:24:11;101223.88;;;10.22;67.48
83140;BME280;73027;54.208;19.128;2024-03-02T02:26:38;101224.66;;;10.26;67.10
83140;BME280;73027;54.208;19.128;2024-03-02T02:29:03;101220.38;;;10.25;67.01
83140;BME280;73027;54.208;19.128;2024-03-02T02:31:49;101218.81;;;10.19;67.03
83140;BME280;73027;54.208;19.128;2024-03-02T02:34:14;101211.97;;;10.18;67.25
83140;BME280;73027;54.208;19.128;2024-03-02T02:36:41;101212.81;;;10.19;67.47
83140;BME280;73027;54.208;19.128;2024-03-02T02:39:10;101218.84;;;10.18;67.16
83140;BME280;73027;54.208;19.128;2024-03-02T02:41:37;101212.88;;;10.14;67.18
83140;BME280;73027;54.208;19.128;2024-03-02T02:44:03;101216.34;;;10.15;66.97
83140;BME280;73027;54.208;19.128;2024-03-02T02:46:29;101211.28;;;10.10;66.95
83140;BME280;73027;54.208;19.128;2024-03-02T02:48:54;101214.81;;;10.06;66.94
83140;BME280;73027;54.208;19.128;2024-03-02T02:51:20;101214.03;;;10.02;67.46
83140;BME280;73027;54.208;19.128;2024-03-02T02:53:45;101214.91;;;10.01;67.08
83140;BME280;73027;54.208;19.128;2024-03-02T02:56:11;101216.63;;;10.01;67.40
83140;BME280;73027;54.208;19.128;2024-03-02T02:58:36;101219.19;;;10.02;67.31
83140;BME280;73027;54.208;19.128;2024-03-02T03:01:01;101209.81;;;10.00;67.65
83140;BME280;73027;54.208;19.128;2024-03-02T03:03:27;101208.97;;;9.99;67.86
83140;BME280;73027;54.208;19.128;2024-03-02T03:05:52;101214.91;;;10.01;67.18
83140;BME280;73027;54.208;19.128;2024-03-02T03:08:18;101208.03;;;10.02;67.20
83140;BME280;73027;54.208;19.128;2024-03-02T03:10:43;101197.81;;;9.99;67.39
83140;BME280;73027;54.208;19.128;2024-03-02T03:13:09;101209.84;;;9.98;67.36
83140;BME280;73027;54.208;19.128;2024-03-02T03:15:36;101212.44;;;9.97;66.82
83140;BME280;73027;54.208;19.128;2024-03-02T03:18:02;101195.53;;;9.88;67.47
83140;BME280;73027;54.208;19.128;2024-03-02T03:20:29;101201.38;;;9.93;67.54
83140;BME280;73027;54.208;19.128;2024-03-02T03:22:55;101179.41;;;9.80;67.23
83140;BME280;73027;54.208;19.128;2024-03-02T03:25:20;101192.88;;;9.90;67.46
83140;BME280;73027;54.208;19.128;2024-03-02T03:27:46;101192.88;;;9.90;67.58
83140;BME280;73027;54.208;19.128;2024-03-02T03:30:12;101188.75;;;9.84;67.61
83140;BME280;73027;54.208;19.128;2024-03-02T03:32:37;101193.00;;;9.85;67.30
83140;BME280;73027;54.208;19.128;2024-03-02T03:35:03;101187.81;;;9.88;67.19
83140;BME280;73027;54.208;19.128;2024-03-02T03:37:29;101187.81;;;9.87;67.21
83140;BME280;73027;54.208;19.128;2024-03-02T03:40:07;101188.69;;;9.87;67.21
83140;BME280;73027;54.208;19.128;2024-03-02T03:42:35;101185.34;;;9.84;67.33
83140;BME280;73027;54.208;19.128;2024-03-02T03:45:01;101183.56;;;9.86;67.62
83140;BME280;73027;54.208;19.128;2024-03-02T03:47:26;101183.59;;;9.84;67.51
83140;BME280;73027;54.208;19.128;2024-03-02T03:49:51;101181.84;;;9.85;67.40
83140;BME280;73027;54.208;19.128;2024-03-02T03:52:17;101187.00;;;9.85;67.51
83140;BME280;73027;54.208;19.128;2024-03-02T03:54:42;101187.94;;;9.82;67.42
83140;BME280;73027;54.208;19.128;2024-03-02T03:57:09;101192.13;;;9.86;67.33
83140;BME280;73027;54.208;19.128;2024-03-02T03:59:35;101193.00;;;9.85;67.64
83140;BME280;73027;54.208;19.128;2024-03-02T04:02:02;101216.03;;;9.90;67.71
83140;BME280;73027;54.208;19.128;2024-03-02T04:04:28;101202.44;;;9.85;67.62
83140;BME280;73027;54.208;19.128;2024-03-02T04:06:53;101205.91;;;9.84;67.30
83140;BME280;73027;54.208;19.128;2024-03-02T04:09:19;101215.34;;;9.83;67.64
83140;BME280;73027;54.208;19.128;2024-03-02T04:11:44;101209.44;;;9.80;67.71
83140;BME280;73027;54.208;19.128;2024-03-02T04:14:10;101218.13;;;9.74;67.68
83140;BME280;73027;54.208;19.128;2024-03-02T04:16:35;101219.09;;;9.70;67.55
83140;BME280;73027;54.208;19.128;2024-03-02T04:19:00;101218.34;;;9.65;67.70
83140;BME280;73027;54.208;19.128;2024-03-02T04:21:26;101221.81;;;9.63;67.69
83140;BME280;73027;54.208;19.128;2024-03-02T04:23:51;101222.75;;;9.60;67.83
83140;BME280;73027;54.208;19.128;2024-03-02T04:26:17;101229.69;;;9.56;68.00
83140;BME280;73027;54.208;19.128;2024-03-02T04:28:47;101228.00;;;9.54;67.85
83140;BME280;73027;54.208;19.128;2024-03-02T04:31:12;101221.19;;;9.53;67.91
83140;BME280;73027;54.208;19.128;2024-03-02T04:33:37;101227.22;;;9.52;68.19
83140;BME280;73027;54.208;19.128;2024-03-02T04:36:03;101221.22;;;9.51;67.87
83140;BME280;73027;54.208;19.128;2024-03-02T04:38:29;101222.06;;;9.53;68.09
83140;BME280;73027;54.208;19.128;2024-03-02T04:40:55;101225.50;;;9.52;67.70
83140;BME280;73027;54.208;19.128;2024-03-02T04:43:21;101205.19;;;9.40;67.82
83140;BME280;73027;54.208;19.128;2024-03-02T04:45:46;101222.16;;;9.49;68.15
83140;BME280;73027;54.208;19.128;2024-03-02T04:48:11;101217.97;;;9.43;68.07
83140;BME280;73027;54.208;19.128;2024-03-02T04:50:37;101220.69;;;9.37;68.15
83140;BME280;73027;54.208;19.128;2024-03-02T04:53:02;101215.63;;;9.34;68.15
83140;BME280;73027;54.208;19.128;2024-03-02T04:55:28;101223.44;;;9.28;68.12
83140;BME280;73027;54.208;19.128;2024-03-02T04:57:53;101230.41;;;9.23;68.23
83140;BME280;73027;54.208;19.128;2024-03-02T05:00:20;101224.53;;;9.18;68.32
83140;BME280;73027;54.208;19.128;2024-03-02T05:02:45;101227.97;;;9.16;68.67
83140;BME280;73027;54.208;19.128;2024-03-02T05:05:11;101213.50;;;9.12;68.58
83140;BME280;73027;54.208;19.128;2024-03-02T05:07:36;101211.84;;;9.09;68.61
83140;BME280;73027;54.208;19.128;2024-03-02T05:10:02;101216.13;;;9.10;68.61
83140;BME280;73027;54.208;19.128;2024-03-02T05:12:27;101210.28;;;9.03;68.64
83140;BME280;73027;54.208;19.128;2024-03-02T05:15:07;101217.16;;;9.01;68.98
83140;BME280;73027;54.208;19.128;2024-03-02T05:17:33;101213.72;;;9.01;68.88
83140;BME280;73027;54.208;19.128;2024-03-02T05:19:58;101208.78;;;8.92;69.06
83140;BME280;73027;54.208;19.128;2024-03-02T05:22:24;101223.25;;;8.96;68.98
83140;BME280;73027;54.208;19.128;2024-03-02T05:24:49;101226.66;;;8.96;68.96
83140;BME280;73027;54.208;19.128;2024-03-02T05:27:15;101217.38;;;8.91;69.36
83140;BME280;73027;54.208;19.128;2024-03-02T05:29:40;101235.28;;;8.94;68.79
83140;BME280;73027;54.208;19.128;2024-03-02T05:32:06;101227.66;;;8.89;69.07
83140;BME280;73027;54.208;19.128;2024-03-02T05:34:31;101238.78;;;8.91;69.05
83140;BME280;73027;54.208;19.128;2024-03-02T05:36:58;101232.84;;;8.88;68.94
83140;BME280;73027;54.208;19.128;2024-03-02T05:39:23;101240.56;;;8.86;69.43
83140;BME280;73027;54.208;19.128;2024-03-02T05:41:48;101239.88;;;8.78;69.11
83140;BME280;73027;54.208;19.128;2024-03-02T05:44:14;101244.06;;;8.84;69.10
83140;BME280;73027;54.208;19.128;2024-03-02T05:46:41;101252.63;;;8.83;69.29
83140;BME280;73027;54.208;19.128;2024-03-02T05:49:06;101258.63;;;8.83;69.35
83140;BME280;73027;54.208;19.128;2024-03-02T05:51:33;101255.16;;;8.84;69.49
83140;BME280;73027;54.208;19.128;2024-03-02T05:53:58;101255.13;;;8.87;69.52
83140;BME280;73027;54.208;19.128;2024-03-02T05:56:24;101259.31;;;8.91;69.39
83140;BME280;73027;54.208;19.128;2024-03-02T05:58:49;101256.75;;;8.91;69.50
83140;BME280;73027;54.208;19.128;2024-03-02T06:01:34;101260.19;;;8.90;69.22
83140;BME280;73027;54.208;19.128;2024-03-02T06:03:59;101253.25;;;8.95;69.15
83140;BME280;73027;54.208;19.128;2024-03-02T06:06:25;101251.50;;;8.96;69.16
83140;BME280;73027;54.208;19.128;2024-03-02T06:08:51;101239.50;;;8.96;69.49
83140;BME280;73027;54.208;19.128;2024-03-02T06:11:17;101240.34;;;8.98;68.94
83140;BME280;73027;54.208;19.128;2024-03-02T06:13:42;101248.91;;;8.99;69.16
83140;BME280;73027;54.208;19.128;2024-03-02T06:16:07;101256.56;;;9.00;69.14
83140;BME280;73027;54.208;19.128;2024-03-02T06:18:34;101250.47;;;9.06;68.86
83140;BME280;73027;54.208;19.128;2024-03-02T06:20:59;101252.88;;;9.15;68.78
83140;BME280;73027;54.208;19.128;2024-03-02T06:23:26;101254.47;;;9.19;68.86
83140;BME280;73027;54.208;19.128;2024-03-02T06:25:51;101256.16;;;9.22;68.67
83140;BME280;73027;54.208;19.128;2024-03-02T06:28:17;101270.47;;;9.33;68.59
83140;BME280;73027;54.208;19.128;2024-03-02T06:30:42;101260.91;;;9.40;68.63
83140;BME280;73027;54.208;19.128;2024-03-02T06:33:09;101258.06;;;9.52;68.32
83140;BME280;73027;54.208;19.128;2024-03-02T06:35:34;101256.22;;;9.58;68.19
83140;BME280;73027;54.208;19.128;2024-03-02T06:38:00;101256.78;;;9.73;67.52
83140;BME280;73027;54.208;19.128;2024-03-02T06:40:25;101258.25;;;9.83;67.48
83140;BME280;73027;54.208;19.128;2024-03-02T06:42:51;101258.00;;;9.93;67.32
83140;BME280;73027;54.208;19.128;2024-03-02T06:45:16;101250.00;;;10.04;67.33
83140;BME280;73027;54.208;19.128;2024-03-02T06:47:41;101260.19;;;10.10;66.94
83140;BME280;73027;54.208;19.128;2024-03-02T06:50:07;101259.25;;;10.13;66.54
83140;BME280;73027;54.208;19.128;2024-03-02T06:52:32;101261.78;;;10.14;66.55
83140;BME280;73027;54.208;19.128;2024-03-02T06:54:58;101262.72;;;10.12;66.64
83140;BME280;73027;54.208;19.128;2024-03-02T06:57:23;101275.63;;;10.10;66.72
83140;BME280;73027;54.208;19.128;2024-03-02T06:59:50;101280.03;;;10.05;66.50
83140;BME280;73027;54.208;19.128;2024-03-02T07:02:16;101277.53;;;10.02;66.71
83140;BME280;73027;54.208;19.128;2024-03-02T07:04:42;101282.66;;;10.02;66.75
83140;BME280;73027;54.208;19.128;2024-03-02T07:07:07;101285.25;;;10.02;66.62
83140;BME280;73027;54.208;19.128;2024-03-02T07:09:33;101272.47;;;9.99;66.97
83140;BME280;73027;54.208;19.128;2024-03-02T07:11:58;101285.31;;;9.99;67.09
83140;BME280;73027;54.208;19.128;2024-03-02T07:14:23;101280.25;;;9.96;66.41
83140;BME280;73027;54.208;19.128;2024-03-02T07:17:11;101281.22;;;9.90;66.93
83140;BME280;73027;54.208;19.128;2024-03-02T07:19:38;101280.28;;;9.94;66.69
83140;BME280;73027;54.208;19.128;2024-03-02T07:22:06;101285.44;;;9.93;66.93
83140;BME280;73027;54.208;19.128;2024-03-02T07:24:31;101292.31;;;9.92;67.05
83140;BME280;73027;54.208;19.128;2024-03-02T07:26:56;101292.28;;;9.94;66.69
83140;BME280;73027;54.208;19.128;2024-03-02T07:29:22;101270.31;;;9.81;66.88
83140;BME280;73027;54.208;19.128;2024-03-02T07:31:47;101287.06;;;9.97;66.91
83140;BME280;73027;54.208;19.128;2024-03-02T07:34:13;101287.75;;;10.05;66.91
83140;BME280;73027;54.208;19.128;2024-03-02T07:36:38;101284.13;;;10.12;67.19
83140;BME280;73027;54.208;19.128;2024-03-02T07:39:04;101282.31;;;10.19;66.43
83140;BME280;73027;54.208;19.128;2024-03-02T07:41:29;101274.66;;;10.16;66.24
83140;BME280;73027;54.208;19.128;2024-03-02T07:43:55;101267.66;;;10.21;66.49
83140;BME280;73027;54.208;19.128;2024-03-02T07:46:20;101280.50;;;10.22;66.24
83140;BME280;73027;54.208;19.128;2024-03-02T07:48:46;101278.78;;;10.23;66.46
83140;BME280;73027;54.208;19.128;2024-03-02T07:51:13;101286.38;;;10.27;66.30
83140;BME280;73027;54.208;19.128;2024-03-02T07:53:39;101293.47;;;10.19;66.27
83140;BME280;73027;54.208;19.128;2024-03-02T07:56:05;101286.53;;;10.21;66.38
83140;BME280;73027;54.208;19.128;2024-03-02T07:58:31;101288.25;;;10.22;66.24
83140;BME280;73027;54.208;19.128;2024-03-02T08:00:56;101284.72;;;10.25;66.41
83140;BME280;73027;54.208;19.128;2024-03-02T08:03:22;101294.94;;;10.29;65.97
83140;BME280;73027;54.208;19.128;2024-03-02T08:05:47;101309.41;;;10.33;66.13
83140;BME280;73027;54.208;19.128;2024-03-02T08:08:12;101307.59;;;10.38;66.21
83140;BME280;73027;54.208;19.128;2024-03-02T08:10:38;101306.56;;;10.44;65.87
83140;BME280;73027;54.208;19.128;2024-03-02T08:13:03;101314.16;;;10.50;65.89
83140;BME280;73027;54.208;19.128;2024-03-02T08:15:29;101316.59;;;10.56;65.90
83140;BME280;73027;54.208;19.128;2024-03-02T08:17:54;101325.91;;;10.62;65.49
83140;BME280;73027;54.208;19.128;2024-03-02T08:20:21;101321.38;;;10.70;65.49
83140;BME280;73027;54.208;19.128;2024-03-02T08:22:46;101296.34;;;10.75;64.98
83140;BME280;73027;54.208;19.128;2024-03-02T08:25:12;101319.13;;;10.91;64.64
83140;BME280;73027;54.208;19.128;2024-03-02T08:27:40;101300.94;;;10.96;64.60
83140;BME280;73027;54.208;19.128;2024-03-02T08:30:05;101295.19;;;10.86;64.79
83140;BME280;73027;54.208;19.128;2024-03-02T08:32:31;101304.56;;;10.89;64.63
83140;BME280;73027;54.208;19.128;2024-03-02T08:34:57;101305.78;;;11.08;64.48
83140;BME280;73027;54.208;19.128;2024-03-02T08:37:22;101312.38;;;11.18;64.55
83140;BME280;73027;54.208;19.128;2024-03-02T08:39:48;101312.19;;;11.24;63.96
83140;BME280;73027;54.208;19.128;2024-03-02T08:42:15;101316.44;;;11.27;63.81
83140;BME280;73027;54.208;19.128;2024-03-02T08:44:40;101318.88;;;11.31;63.51
83140;BME280;73027;54.208;19.128;2024-03-02T08:47:05;101295.81;;;11.27;63.62
83140;BME280;73027;54.208;19.128;2024-03-02T08:49:31;101300.63;;;11.39;63.40
83140;BME280;73027;54.208;19.128;2024-03-02T08:51:56;101299.50;;;11.47;63.29
83140;BME280;73027;54.208;19.128;2024-03-02T08:54:22;101307.00;;;11.55;63.34
83140;BME280;73027;54.208;19.128;2024-03-02T08:56:50;101305.03;;;11.63;62.99
83140;BME280;73027;54.208;19.128;2024-03-02T08:59:16;101308.31;;;11.70;62.89
83140;BME280;73027;54.208;19.128;2024-03-02T09:01:41;101304.72;;;11.75;62.33
83140;BME280;73027;54.208;19.128;2024-03-02T09:04:07;101301.81;;;11.86;62.37
83140;BME280;73027;54.208;19.128;2024-03-02T09:06:36;101307.13;;;11.81;62.02
83140;BME280;73027;54.208;19.128;2024-03-02T09:09:01;101305.47;;;11.79;62.05
83140;BME280;73027;54.208;19.128;2024-03-02T09:11:27;101313.06;;;11.85;62.15
83140;BME280;73027;54.208;19.128;2024-03-02T09:13:53;101313.81;;;11.88;62.02
83140;BME280;73027;54.208;19.128;2024-03-02T09:16:20;101317.88;;;11.96;61.80
83140;BME280;73027;54.208;19.128;2024-03-02T09:18:45;101309.91;;;12.03;61.72
83140;BME280;73027;54.208;19.128;2024-03-02T09:21:10;101330.53;;;12.05;61.29
83140;BME280;73027;54.208;19.128;2024-03-02T09:23:36;101339.94;;;12.06;61.45
83140;BME280;73027;54.208;19.128;2024-03-02T09:26:01;101332.31;;;12.01;61.48
83140;BME280;73027;54.208;19.128;2024-03-02T09:28:28;101326.09;;;12.08;61.43
83140;BME280;73027;54.208;19.128;2024-03-02T09:30:53;101343.03;;;12.17;61.68
83140;BME280;73027;54.208;19.128;2024-03-02T09:33:18;101328.09;;;12.26;61.50
83140;BME280;73027;54.208;19.128;2024-03-02T09:35:44;101325.06;;;12.40;61.27
83140;BME280;73027;54.208;19.128;2024-03-02T09:38:09;101325.75;;;12.45;60.60
83140;BME280;73027;54.208;19.128;2024-03-02T09:40:35;101315.44;;;12.45;60.80
83140;BME280;73027;54.208;19.128;2024-03-02T09:43:01;101336.81;;;12.50;60.35
83140;BME280;73027;54.208;19.128;2024-03-02T09:45:28;101332.53;;;12.49;60.03
83140;BME280;73027;54.208;19.128;2024-03-02T09:47:55;101313.72;;;12.44;60.07
83140;BME280;73027;54.208;19.128;2024-03-02T09:50:20;101339.75;;;12.39;60.44
83140;BME280;73027;54.208;19.128;2024-03-02T09:52:49;101331.16;;;12.39;60.66
83140;BME280;73027;54.208;19.128;2024-03-02T09:55:17;101338.53;;;12.50;60.38
83140;BME280;73027;54.208;19.128;2024-03-02T09:57:45;101328.13;;;12.51;59.94
83140;BME280;73027;54.208;19.128;2024-03-02T10:00:11;101321.09;;;12.56;59.71
83140;BME280;73027;54.208;19.128;2024-03-02T10:02:42;101338.81;;;12.67;59.48
83140;BME280;73027;54.208;19.128;2024-03-02T10:05:11;101338.75;;;12.70;59.18
83140;BME280;73027;54.208;19.128;2024-03-02T10:07:37;101341.97;;;12.76;59.62
83140;BME280;73027;54.208;19.128;2024-03-02T10:10:13;101335.63;;;12.85;58.71
83140;BME280;73027;54.208;19.128;2024-03-02T10:12:39;101337.31;;;12.86;58.86
83140;BME280;73027;54.208;19.128;2024-03-02T10:15:05;101348.56;;;12.85;58.46
83140;BME280;73027;54.208;19.128;2024-03-02T10:17:31;101345.06;;;12.86;58.64
83140;BME280;73027;54.208;19.128;2024-03-02T10:19:56;101332.06;;;12.89;58.51
83140;BME280;73027;54.208;19.128;2024-03-02T10:22:23;101330.13;;;12.94;58.49
83140;BME280;73027;54.208;19.128;2024-03-02T10:24:48;101327.50;;;12.96;58.56
83140;BME280;73027;54.208;19.128;2024-03-02T10:27:22;101323.75;;;13.04;58.59
83140;BME280;73027;54.208;19.128;2024-03-02T10:29:49;101333.94;;;13.09;58.67
83140;BME280;73027;54.208;19.128;2024-03-02T10:32:15;101335.38;;;13.17;58.58
83140;BME280;73027;54.208;19.128;2024-03-02T10:34:42;101351.56;;;13.24;57.94
83140;BME280;73027;54.208;19.128;2024-03-02T10:37:07;101336.59;;;13.32;57.85
83140;BME280;73027;54.208;19.128;2024-03-02T10:39:34;101332.50;;;13.50;57.11
83140;BME280;73027;54.208;19.128;2024-03-02T10:42:06;101342.22;;;13.66;57.16
83140;BME280;73027;54.208;19.128;2024-03-02T10:44:32;101336.47;;;13.81;57.16
83140;BME280;73027;54.208;19.128;2024-03-02T10:47:00;101334.91;;;13.99;56.60
83140;BME280;73027;54.208;19.128;2024-03-02T10:49:26;101337.09;;;14.31;56.31
83140;BME280;73027;54.208;19.128;2024-03-02T10:51:52;101330.44;;;14.48;55.33
83140;BME280;73027;54.208;19.128;2024-03-02T10:54:18;101350.78;;;14.57;54.41
83140;BME280;73027;54.208;19.128;2024-03-02T10:56:44;101325.81;;;14.54;54.42
83140;BME280;73027;54.208;19.128;2024-03-02T11:01:58;101332.66;;;14.77;53.72
83140;BME280;73027;54.208;19.128;2024-03-02T11:04:26;101311.00;;;14.78;53.84
83140;BME280;73027;54.208;19.128;2024-03-02T11:06:52;101322.22;;;14.78;53.68
83140;BME280;73027;54.208;19.128;2024-03-02T11:09:20;101325.47;;;14.63;53.70
83140;BME280;73027;54.208;19.128;2024-03-02T11:11:51;101316.50;;;14.70;54.47
83140;BME280;73027;54.208;19.128;2024-03-02T11:14:21;101319.31;;;14.86;53.96
83140;BME280;73027;54.208;19.128;2024-03-02T11:16:49;101318.47;;;14.86;53.86
83140;BME280;73027;54.208;19.128;2024-03-02T11:19:15;101317.78;;;14.81;54.00
83140;BME280;73027;54.208;19.128;2024-03-02T11:21:42;101306.66;;;14.78;53.76
83140;BME280;73027;54.208;19.128;2024-03-02T11:26:50;101308.00;;;14.87;54.14
83140;BME280;73027;54.208;19.128;2024-03-02T11:32:01;101308.13;;;14.64;54.36
83140;BME280;73027;54.208;19.128;2024-03-02T11:34:30;101307.59;;;14.56;54.79
83140;BME280;73027;54.208;19.128;2024-03-02T11:36:56;101298.72;;;14.41;54.50
83140;BME280;73027;54.208;19.128;2024-03-02T11:39:22;101315.69;;;14.26;55.17
83140;BME280;73027;54.208;19.128;2024-03-02T11:41:48;101308.41;;;14.14;55.68
83140;BME280;73027;54.208;19.128;2024-03-02T11:44:14;101296.78;;;14.03;55.77
83140;BME280;73027;54.208;19.128;2024-03-02T11:46:41;101307.28;;;14.00;56.41
83140;BME280;73027;54.208;19.128;2024-03-02T11:49:06;101296.19;;;13.96;56.63
83140;BME280;73027;54.208;19.128;2024-03-02T11:51:35;101306.44;;;13.99;56.80
83140;BME280;73027;54.208;19.128;2024-03-02T11:54:02;101305.56;;;13.99;56.94
83140;BME280;73027;54.208;19.128;2024-03-02T11:56:30;101313.44;;;13.97;56.85
83140;BME280;73027;54.208;19.128;2024-03-02T11:58:56;101298.56;;;13.79;56.97
83140;BME280;73027;54.208;19.128;2024-03-02T12:01:22;101301.84;;;13.84;57.08
83140;BME280;73027;54.208;19.128;2024-03-02T12:03:48;101304.44;;;13.84;57.06
83140;BME280;73027;54.208;19.128;2024-03-02T12:06:14;101298.50;;;13.82;56.80
83140;BME280;73027;54.208;19.128;2024-03-02T12:08:40;101309.78;;;13.79;56.83
83140;BME280;73027;54.208;19.128;2024-03-02T12:11:05;101306.47;;;13.76;57.00
83140;BME280;73027;54.208;19.128;2024-03-02T12:13:32;101306.25;;;13.82;56.77
83140;BME280;73027;54.208;19.128;2024-03-02T12:15:58;101304.44;;;13.84;56.72
83140;BME280;73027;54.208;19.128;2024-03-02T12:18:24;101309.41;;;13.90;56.87
83140;BME280;73027;54.208;19.128;2024-03-02T12:20:50;101300.34;;;14.00;57.19
83140;BME280;73027;54.208;19.128;2024-03-02T12:23:22;101294.59;;;14.14;56.96
83140;BME280;73027;54.208;19.128;2024-03-02T12:25:48;101294.84;;;14.29;56.59
83140;BME280;73027;54.208;19.128;2024-03-02T12:28:14;101293.59;;;14.40;56.65
83140;BME280;73027;54.208;19.128;2024-03-02T12:30:39;101299.25;;;14.49;56.37
83140;BME280;73027;54.208;19.128;2024-03-02T12:33:05;101287.31;;;14.45;55.77
83140;BME280;73027;54.208;19.128;2024-03-02T12:35:30;101288.88;;;14.49;55.59
83140;BME280;73027;54.208;19.128;2024-03-02T12:37:56;101296.66;;;14.49;55.32
83140;BME280;73027;54.208;19.128;2024-03-02T12:40:22;101281.22;;;14.46;55.58
83140;BME280;73027;54.208;19.128;2024-03-02T12:42:48;101288.34;;;14.41;55.46
83140;BME280;73027;54.208;19.128;2024-03-02T12:45:15;101287.78;;;14.33;55.33
83140;BME280;73027;54.208;19.128;2024-03-02T12:47:41;101289.78;;;14.26;55.47
83140;BME280;73027;54.208;19.128;2024-03-02T12:50:07;101287.25;;;14.25;56.00